createdAt,value
2024-01-08T00:02:42.902Z,5.00
2024-01-08T00:12:44.793Z,5.65
2024-01-08T00:22:46.987Z,5.30
2024-01-08T00:32:49.537Z,6.03
2024-01-08T00:42:51.835Z,5.97
2024-01-08T00:52:54.122Z,5.25
2024-01-08T01:02:56.348Z,5.50
2024-01-08T01:12:58.402Z,5.60
2024-01-08T01:23:00.598Z,5.97
2024-01-08T01:33:03.583Z,6.38
2024-01-08T01:43:27.836Z,5.68
2024-01-08T01:53:30.917Z,5.53
2024-01-08T02:03:33.942Z,5.07
2024-01-08T02:13:36.198Z,5.95
2024-01-08T02:23:38.314Z,5.40
2024-01-08T02:33:40.227Z,5.90
2024-01-08T02:43:42.189Z,5.53
2024-01-08T02:53:44.365Z,7.20
2024-01-08T03:03:46.410Z,5.45
2024-01-08T03:13:48.324Z,6.18
2024-01-08T03:23:50.541Z,5.50
2024-01-08T03:33:52.670Z,6.47
2024-01-08T03:43:55.060Z,5.90
2024-01-08T03:53:57.213Z,5.88
2024-01-08T04:03:59.525Z,6.07
2024-01-08T04:14:02.132Z,6.55
2024-01-08T04:24:04.704Z,7.53
2024-01-08T04:34:07.393Z,6.38
2024-01-08T04:44:10.405Z,7.60
2024-01-08T04:54:12.693Z,7.07
2024-01-08T05:04:14.684Z,6.10
2024-01-08T05:14:16.825Z,7.35
2024-01-08T05:24:19.142Z,7.78
2024-01-08T05:34:21.517Z,7.45
2024-01-08T05:44:23.638Z,6.45
2024-01-08T05:54:25.766Z,6.40
2024-01-08T06:04:27.856Z,6.32
2024-01-08T06:14:30.273Z,7.95
2024-01-08T06:24:32.430Z,7.43
2024-01-08T06:34:34.601Z,6.82
2024-01-08T06:44:36.743Z,8.13
2024-01-08T06:54:39.587Z,6.40
2024-01-08T07:04:42.562Z,7.72
2024-01-08T07:14:49.861Z,8.15
2024-01-08T07:24:52.053Z,6.80
2024-01-08T07:34:54.276Z,6.85
2024-01-08T07:44:56.609Z,9.43
2024-01-08T07:54:58.509Z,7.85
2024-01-08T08:05:00.788Z,7.38
2024-01-08T08:15:03.365Z,8.38
2024-01-08T08:25:06.037Z,7.40
2024-01-08T08:35:10.037Z,8.35
2024-01-08T08:45:12.443Z,8.02
2024-01-08T08:55:14.794Z,7.70
2024-01-08T09:05:26.010Z,7.13
2024-01-08T09:15:35.156Z,6.88
2024-01-08T09:25:37.328Z,8.02
2024-01-08T09:35:39.711Z,7.13
2024-01-08T09:46:07.124Z,8.07
2024-01-08T09:56:11.369Z,6.85
2024-01-08T10:06:13.825Z,7.30
2024-01-08T10:16:16.935Z,9.40
2024-01-08T10:26:19.659Z,9.32
2024-01-08T10:36:22.518Z,8.00
2024-01-08T10:46:30.373Z,7.50
2024-01-08T10:56:33.565Z,6.50
2024-01-08T11:06:43.285Z,8.20
2024-01-08T11:16:46.002Z,7.70
2024-01-08T11:26:52.859Z,7.82
2024-01-08T11:37:13.663Z,9.13
2024-01-08T11:47:16.412Z,7.45
2024-01-08T11:57:19.072Z,8.45
2024-01-08T12:07:23.176Z,8.75
2024-01-08T12:17:25.945Z,8.68
2024-01-08T12:27:32.136Z,7.07
2024-01-08T12:37:35.383Z,7.60
2024-01-08T12:47:37.755Z,7.03
2024-01-08T12:57:40.274Z,6.32
2024-01-08T13:07:42.404Z,8.50
2024-01-08T13:17:44.588Z,6.90
2024-01-08T13:27:47.188Z,7.57
2024-01-08T13:37:49.779Z,7.47
2024-01-08T13:47:52.603Z,7.45
2024-01-08T13:57:55.088Z,7.50
2024-01-08T14:07:57.433Z,6.93
2024-01-08T14:17:59.863Z,7.00
2024-01-08T14:28:02.110Z,7.47
2024-01-08T14:38:04.529Z,7.45
2024-01-08T14:48:06.894Z,7.57
2024-01-08T14:58:11.444Z,7.47
2024-01-08T15:08:15.752Z,7.50
2024-01-08T15:18:20.123Z,7.50
2024-01-08T15:28:22.888Z,7.85
2024-01-08T15:38:45.650Z,6.95
2024-01-08T15:48:49.483Z,7.93
2024-01-08T15:58:51.736Z,7.22
2024-01-08T16:08:54.501Z,6.55
2024-01-08T16:18:56.741Z,7.03
2024-01-08T16:28:59.114Z,6.20
2024-01-08T16:39:01.504Z,5.38
2024-01-08T16:49:05.798Z,8.13
2024-01-08T16:59:07.904Z,4.40
2024-01-08T17:09:12.290Z,5.57
2024-01-08T17:19:14.648Z,5.95
2024-01-08T17:29:17.601Z,5.95
2024-01-08T17:39:21.504Z,7.30
2024-01-08T17:49:23.930Z,6.75
2024-01-08T17:59:26.161Z,7.05
2024-01-08T18:09:28.287Z,7.65
2024-01-08T18:19:30.836Z,7.43
2024-01-08T18:29:33.351Z,8.18
2024-01-08T18:39:38.853Z,6.50
2024-01-08T18:49:41.300Z,6.78
2024-01-08T18:59:43.802Z,9.70
2024-01-08T19:09:47.525Z,9.88
2024-01-08T19:19:49.642Z,8.77
2024-01-08T19:29:52.639Z,8.25
2024-01-08T19:39:54.755Z,9.32
2024-01-08T19:49:57.538Z,10.05
2024-01-08T19:59:59.920Z,9.48
2024-01-08T20:10:03.090Z,9.35
2024-01-08T20:20:06.079Z,10.75
2024-01-08T20:30:09.534Z,9.95
2024-01-08T20:40:12.296Z,11.80
2024-01-08T20:50:14.346Z,11.85
2024-01-08T21:00:16.512Z,14.18
2024-01-08T21:10:18.453Z,12.35
2024-01-08T21:20:22.097Z,14.30
2024-01-08T21:30:24.723Z,11.60
2024-01-08T21:40:27.351Z,11.50
2024-01-08T21:50:29.567Z,11.02
2024-01-08T22:00:32.311Z,8.57
2024-01-08T22:10:35.409Z,7.88
2024-01-08T22:20:37.941Z,7.50
2024-01-08T22:30:40.237Z,7.55
2024-01-08T22:40:42.694Z,7.00
2024-01-08T22:50:45.146Z,7.32
2024-01-08T23:00:47.480Z,6.50
2024-01-08T23:10:49.641Z,6.80
2024-01-08T23:20:51.933Z,5.75
2024-01-08T23:30:54.197Z,7.10
2024-01-08T23:40:56.735Z,6.38
2024-01-08T23:50:58.752Z,6.22
